Time;durP1;ratioP1;P1;durP2;ratioP2;P2;SDS_P1;SDS_P2;PMS_P1;PMS_P2;Temp;Humidity;BMP_temperature;BMP_pressure;BME280_temperature;BME280_humidity;BME280_pressure;Samples;Min_cycle;Max_cycle;Signal;HPM_P1;HPM_P2
2024/01/28 00:01:09;;;;;;;94.20;49.80;;;;;;;-128.00;-1.00;-1.00;103463;1253;1005031;-81
2024/01/28 00:03:56;;;;;;;21.00;10.40;;;;;;;-128.00;-1.00;-1.00;103499;1255;1047912;-81
2024/01/28 00:06:22;;;;;;;22.10;9.70;;;;;;;-128.00;-1.00;-1.00;103498;1253;1004156;-81
2024/01/28 00:08:49;;;;;;;52.00;21.40;;;;;;;-128.00;-1.00;-1.00;103448;1254;1005023;-80
2024/01/28 00:11:16;;;;;;;54.70;25.50;;;;;;;-128.00;-1.00;-1.00;103543;1253;1005031;-79
2024/01/28 00:13:42;;;;;;;50.00;20.70;;;;;;;-128.00;-1.00;-1.00;103513;1253;1005775;-81
2024/01/28 00:16:19;;;;;;;57.30;29.00;;;;;;;-128.00;-1.00;-1.00;103479;1253;1004223;-80
2024/01/28 00:18:46;;;;;;;68.00;34.00;;;;;;;-128.00;-1.00;-1.00;103506;1253;1060818;-80
2024/01/28 00:21:13;;;;;;;177.30;89.30;;;;;;;-128.00;-1.00;-1.00;103532;1253;1005705;-80
2024/01/28 00:23:40;;;;;;;66.70;36.60;;;;;;;-128.00;-1.00;-1.00;103482;1253;1004488;-79
2024/01/28 00:26:07;;;;;;;35.20;15.40;;;;;;;-128.00;-1.00;-1.00;103018;1253;1004823;-80
2024/01/28 00:28:33;;;;;;;29.40;13.20;;;;;;;-128.00;-1.00;-1.00;103032;1253;1004941;-80
2024/01/28 00:31:00;;;;;;;28.90;13.70;;;;;;;-128.00;-1.00;-1.00;103115;1253;1003849;-79
2024/01/28 00:33:27;;;;;;;29.70;9.90;;;;;;;-128.00;-1.00;-1.00;103036;1253;1004044;-80
2024/01/28 00:35:53;;;;;;;31.00;10.60;;;;;;;-128.00;-1.00;-1.00;103017;1253;1004718;-80
2024/01/28 00:38:20;;;;;;;28.40;11.80;;;;;;;-128.00;-1.00;-1.00;103033;1253;1005357;-80
2024/01/28 00:40:47;;;;;;;25.20;11.30;;;;;;;-128.00;-1.00;-1.00;103029;1253;1004742;-80
2024/01/28 00:43:13;;;;;;;25.60;11.20;;;;;;;-128.00;-1.00;-1.00;102992;1253;1004005;-80
2024/01/28 00:45:41;;;;;;;29.30;11.30;;;;;;;-128.00;-1.00;-1.00;102959;1254;1004308;-80
2024/01/28 00:48:07;;;;;;;29.70;11.70;;;;;;;-128.00;-1.00;-1.00;102929;1254;1005283;-80
2024/01/28 00:50:34;;;;;;;29.30;11.40;;;;;;;-128.00;-1.00;-1.00;102937;1254;1004082;-80
2024/01/28 00:53:00;;;;;;;30.90;10.30;;;;;;;-128.00;-1.00;-1.00;102910;1254;1004370;-80
2024/01/28 00:55:28;;;;;;;25.10;9.70;;;;;;;-128.00;-1.00;-1.00;102893;1254;1005032;-80
2024/01/28 00:57:55;;;;;;;28.50;9.80;;;;;;;-128.00;-1.00;-1.00;102934;1254;1005531;-80
2024/01/28 01:00:21;;;;;;;17.60;8.50;;;;;;;-128.00;-1.00;-1.00;102895;1254;1004379;-80
2024/01/28 01:02:48;;;;;;;27.10;10.50;;;;;;;-128.00;-1.00;-1.00;102894;1254;1003764;-80
2024/01/28 01:05:14;;;;;;;31.00;11.40;;;;;;;-128.00;-1.00;-1.00;102940;1254;1004662;-80
2024/01/28 01:07:41;;;;;;;22.80;9.10;;;;;;;-128.00;-1.00;-1.00;102880;1257;1004518;-80
2024/01/28 01:10:08;;;;;;;21.30;9.00;;;;;;;-128.00;-1.00;-1.00;102915;1254;1004846;-80
2024/01/28 01:12:35;;;;;;;20.20;8.70;;;;;;;-128.00;-1.00;-1.00;102946;1253;1004757;-80
2024/01/28 01:15:01;;;;;;;26.30;11.40;;;;;;;-128.00;-1.00;-1.00;102987;1253;1004963;-80
2024/01/28 01:17:28;;;;;;;24.00;10.80;;;;;;;-128.00;-1.00;-1.00;102944;1253;1003923;-80
2024/01/28 01:19:54;;;;;;;47.50;19.80;;;;;;;-128.00;-1.00;-1.00;102997;1253;1004776;-80
2024/01/28 01:22:21;;;;;;;60.00;26.00;;;;;;;-128.00;-1.00;-1.00;103393;1253;1004826;-80
2024/01/28 01:24:48;;;;;;;42.30;20.60;;;;;;;-128.00;-1.00;-1.00;103404;1253;1005065;-80
2024/01/28 01:27:14;;;;;;;43.10;18.80;;;;;;;-128.00;-1.00;-1.00;103374;1254;1004444;-81
2024/01/28 01:29:41;;;;;;;31.40;14.90;;;;;;;-128.00;-1.00;-1.00;103576;1253;1006749;-79
2024/01/28 01:32:10;;;;;;;36.70;16.50;;;;;;;-128.00;-1.00;-1.00;103429;1253;1004930;-80
2024/01/28 01:34:37;;;;;;;34.50;15.00;;;;;;;-128.00;-1.00;-1.00;103442;1253;1059718;-80
2024/01/28 01:37:04;;;;;;;32.30;15.30;;;;;;;-128.00;-1.00;-1.00;103421;1253;1004465;-80
2024/01/28 01:39:30;;;;;;;28.10;11.40;;;;;;;-128.00;-1.00;-1.00;103459;1253;1003711;-80
2024/01/28 01:41:57;;;;;;;18.90;12.20;;;;;;;-128.00;-1.00;-1.00;103429;1253;1005121;-80
2024/01/28 01:44:24;;;;;;;28.40;9.70;;;;;;;-128.00;-1.00;-1.00;103411;1253;1003888;-80
2024/01/28 01:46:50;;;;;;;19.80;7.50;;;;;;;-128.00;-1.00;-1.00;103278;1253;1005199;-80
2024/01/28 01:49:17;;;;;;;31.10;12.00;;;;;;;-128.00;-1.00;-1.00;103436;1256;1004705;-80
2024/01/28 01:51:44;;;;;;;23.50;8.50;;;;;;;-128.00;-1.00;-1.00;103240;1253;1005230;-80
2024/01/28 01:54:11;;;;;;;22.70;9.30;;;;;;;-128.00;-1.00;-1.00;103453;1253;1005035;-80
2024/01/28 01:56:37;;;;;;;21.00;9.20;;;;;;;-128.00;-1.00;-1.00;103337;1253;1004292;-80
2024/01/28 01:59:04;;;;;;;27.10;9.20;;;;;;;-128.00;-1.00;-1.00;103370;1253;1004681;-80
2024/01/28 02:01:31;;;;;;;24.60;9.60;;;;;;;-128.00;-1.00;-1.00;103389;1253;1005313;-80
2024/01/28 02:03:58;;;;;;;26.30;10.10;;;;;;;-128.00;-1.00;-1.00;103384;1253;1005025;-80
2024/01/28 02:06:26;;;;;;;22.10;10.90;;;;;;;-128.00;-1.00;-1.00;103402;1253;1004451;-80
2024/01/28 02:08:54;;;;;;;30.60;11.40;;;;;;;-128.00;-1.00;-1.00;103681;1253;1003877;-80
2024/01/28 02:11:21;;;;;;;27.60;13.00;;;;;;;-128.00;-1.00;-1.00;103055;1253;1003558;-80
2024/01/28 02:13:48;;;;;;;29.80;14.40;;;;;;;-128.00;-1.00;-1.00;103065;1253;1004440;-79
2024/01/28 02:16:14;;;;;;;33.30;18.00;;;;;;;-128.00;-1.00;-1.00;102927;1253;1004034;-79
2024/01/28 02:18:41;;;;;;;32.00;16.30;;;;;;;-128.00;-1.00;-1.00;103030;1253;1004285;-79
2024/01/28 02:21:08;;;;;;;50.50;22.00;;;;;;;-128.00;-1.00;-1.00;102989;1253;1004903;-80
2024/01/28 02:23:34;;;;;;;26.30;13.10;;;;;;;-128.00;-1.00;-1.00;102973;1253;1005444;-80
2024/01/28 02:26:01;;;;;;;31.00;13.50;;;;;;;-128.00;-1.00;-1.00;102951;1253;1004278;-80
2024/01/28 02:28:27;;;;;;;19.50;8.80;;;;;;;-128.00;-1.00;-1.00;102980;1253;1004146;-80
2024/01/28 02:30:54;;;;;;;28.60;11.50;;;;;;;-128.00;-1.00;-1.00;102939;1253;1005822;-80
2024/01/28 02:33:21;;;;;;;26.80;8.70;;;;;;;-128.00;-1.00;-1.00;102954;1253;1004813;-79
2024/01/28 02:35:47;;;;;;;20.80;8.90;;;;;;;-128.00;-1.00;-1.00;102946;1253;1004215;-79
2024/01/28 02:38:14;;;;;;;18.90;7.50;;;;;;;-128.00;-1.00;-1.00;102965;1253;1004070;-80
2024/01/28 02:40:40;;;;;;;16.90;7.30;;;;;;;-128.00;-1.00;-1.00;102988;1253;1004051;-80
2024/01/28 02:43:07;;;;;;;20.70;8.60;;;;;;;-128.00;-1.00;-1.00;103005;1255;1004078;-80
2024/01/28 02:45:34;;;;;;;19.40;9.10;;;;;;;-128.00;-1.00;-1.00;102994;1253;1004510;-80
2024/01/28 02:48:00;;;;;;;22.00;9.80;;;;;;;-128.00;-1.00;-1.00;102977;1253;1003615;-80
2024/01/28 02:50:27;;;;;;;15.60;8.50;;;;;;;-128.00;-1.00;-1.00;102983;1254;1004955;-80
2024/01/28 02:52:54;;;;;;;21.00;10.10;;;;;;;-128.00;-1.00;-1.00;102929;1256;1005113;-80
2024/01/28 02:55:20;;;;;;;17.60;8.50;;;;;;;-128.00;-1.00;-1.00;103028;1253;1004408;-80
2024/01/28 02:57:47;;;;;;;16.00;7.80;;;;;;;-128.00;-1.00;-1.00;102976;1253;1004073;-80
2024/01/28 03:00:14;;;;;;;17.70;7.80;;;;;;;-128.00;-1.00;-1.00;103409;1253;1005294;-80
2024/01/28 03:02:41;;;;;;;16.50;7.50;;;;;;;-128.00;-1.00;-1.00;103406;1253;1004847;-79
2024/01/28 03:05:11;;;;;;;16.80;7.00;;;;;;;-128.00;-1.00;-1.00;103423;1253;1004219;-80
2024/01/28 03:07:37;;;;;;;16.70;7.90;;;;;;;-128.00;-1.00;-1.00;103411;1253;1049738;-80
2024/01/28 03:10:05;;;;;;;20.00;8.20;;;;;;;-128.00;-1.00;-1.00;102957;1257;1004618;-80
2024/01/28 03:12:31;;;;;;;20.20;9.40;;;;;;;-128.00;-1.00;-1.00;105360;1253;1003423;-80
2024/01/28 03:14:58;;;;;;;15.10;8.30;;;;;;;-128.00;-1.00;-1.00;102986;1252;1004616;-80
2024/01/28 03:17:24;;;;;;;16.60;8.70;;;;;;;-128.00;-1.00;-1.00;102959;1253;1003958;-80
2024/01/28 03:19:51;;;;;;;17.00;9.50;;;;;;;-128.00;-1.00;-1.00;103071;1253;1004253;-80
2024/01/28 03:22:17;;;;;;;24.10;9.90;;;;;;;-128.00;-1.00;-1.00;103012;1253;1004679;-80
2024/01/28 03:24:44;;;;;;;26.60;12.60;;;;;;;-128.00;-1.00;-1.00;102954;1253;1004324;-80
2024/01/28 03:27:11;;;;;;;20.90;11.60;;;;;;;-128.00;-1.00;-1.00;102960;1252;1004724;-80
2024/01/28 03:29:37;;;;;;;30.10;11.70;;;;;;;-128.00;-1.00;-1.00;102949;1257;1004275;-80
2024/01/28 03:32:04;;;;;;;24.20;15.20;;;;;;;-128.00;-1.00;-1.00;102990;1253;1004297;-80
2024/01/28 03:34:31;;;;;;;20.30;12.10;;;;;;;-128.00;-1.00;-1.00;104664;1253;1003887;-80
2024/01/28 03:36:58;;;;;;;28.30;14.20;;;;;;;-128.00;-1.00;-1.00;105668;1253;1003363;-80
2024/01/28 03:39:24;;;;;;;22.40;12.70;;;;;;;-128.00;-1.00;-1.00;105125;1252;1004627;-80
2024/01/28 03:41:51;;;;;;;50.30;25.50;;;;;;;-128.00;-1.00;-1.00;105407;1253;1003638;-80
2024/01/28 03:44:22;;;;;;;31.00;18.80;;;;;;;-128.00;-1.00;-1.00;102972;1253;1004619;-80
2024/01/28 03:46:50;;;;;;;22.70;12.00;;;;;;;-128.00;-1.00;-1.00;103072;1253;1061778;-81
2024/01/28 03:49:16;;;;;;;24.90;11.30;;;;;;;-128.00;-1.00;-1.00;102962;1253;1005970;-80
2024/01/28 03:51:43;;;;;;;25.30;12.10;;;;;;;-128.00;-1.00;-1.00;102952;1253;1004000;-80
2024/01/28 03:54:09;;;;;;;22.20;13.20;;;;;;;-128.00;-1.00;-1.00;103011;1253;1004376;-80
2024/01/28 03:56:37;;;;;;;25.80;14.50;;;;;;;-128.00;-1.00;-1.00;103002;1253;1004386;-79
2024/01/28 03:59:04;;;;;;;34.10;15.50;;;;;;;-128.00;-1.00;-1.00;103006;1253;1004635;-80
2024/01/28 04:01:31;;;;;;;21.90;9.70;;;;;;;-128.00;-1.00;-1.00;103018;1253;1004310;-80
2024/01/28 04:03:58;;;;;;;28.50;9.60;;;;;;;-128.00;-1.00;-1.00;105709;1253;1004310;-80
2024/01/28 04:06:25;;;;;;;31.40;16.90;;;;;;;-128.00;-1.00;-1.00;103325;1253;1004937;-79
2024/01/28 04:08:54;;;;;;;27.40;16.30;;;;;;;-128.00;-1.00;-1.00;103022;1253;1005421;-80
2024/01/28 04:11:25;;;;;;;33.00;18.70;;;;;;;-128.00;-1.00;-1.00;105691;1253;1060842;-80
2024/01/28 04:13:53;;;;;;;26.40;11.60;;;;;;;-128.00;-1.00;-1.00;103313;1253;1058398;-80
2024/01/28 04:16:23;;;;;;;22.70;11.80;;;;;;;-128.00;-1.00;-1.00;103398;1253;1004598;-80
2024/01/28 04:18:49;;;;;;;24.80;12.60;;;;;;;-128.00;-1.00;-1.00;103393;1253;1045813;-80
2024/01/28 04:21:16;;;;;;;24.00;11.10;;;;;;;-128.00;-1.00;-1.00;103368;1253;1005112;-80
2024/01/28 04:23:43;;;;;;;18.40;9.90;;;;;;;-128.00;-1.00;-1.00;103422;1253;1006325;-80
2024/01/28 04:26:11;;;;;;;18.20;9.30;;;;;;;-128.00;-1.00;-1.00;103420;1253;1004332;-80
2024/01/28 04:28:37;;;;;;;24.80;10.80;;;;;;;-128.00;-1.00;-1.00;103398;1253;1005217;-80
2024/01/28 04:31:04;;;;;;;16.00;6.60;;;;;;;-128.00;-1.00;-1.00;103403;1253;1003718;-80
2024/01/28 04:33:30;;;;;;;15.30;6.50;;;;;;;-128.00;-1.00;-1.00;103439;1253;1004031;-80
2024/01/28 04:35:57;;;;;;;10.50;5.60;;;;;;;-128.00;-1.00;-1.00;103491;1253;1004970;-80
2024/01/28 04:38:23;;;;;;;11.40;6.90;;;;;;;-128.00;-1.00;-1.00;103992;1253;1004513;-80
2024/01/28 04:40:50;;;;;;;15.70;7.50;;;;;;;-128.00;-1.00;-1.00;103480;1253;1004141;-80
2024/01/28 04:43:17;;;;;;;15.60;6.90;;;;;;;-128.00;-1.00;-1.00;103472;1257;1004456;-80
2024/01/28 04:45:43;;;;;;;16.10;6.60;;;;;;;-128.00;-1.00;-1.00;103557;1253;1004136;-79
2024/01/28 04:48:10;;;;;;;11.10;5.70;;;;;;;-128.00;-1.00;-1.00;105071;1253;1005025;-80
2024/01/28 04:50:37;;;;;;;17.50;6.80;;;;;;;-128.00;-1.00;-1.00;105725;1253;1003774;-81
2024/01/28 04:53:04;;;;;;;20.20;7.30;;;;;;;-128.00;-1.00;-1.00;103918;1253;1004205;-80
2024/01/28 04:55:30;;;;;;;12.80;6.60;;;;;;;-128.00;-1.00;-1.00;103048;1253;1004327;-80
2024/01/28 04:57:57;;;;;;;11.10;5.10;;;;;;;-128.00;-1.00;-1.00;103440;1253;1003990;-80
2024/01/28 05:00:24;;;;;;;11.40;6.10;;;;;;;-128.00;-1.00;-1.00;103452;1253;1006425;-79
2024/01/28 05:02:50;;;;;;;18.20;7.10;;;;;;;-128.00;-1.00;-1.00;102963;1253;1004782;-79
2024/01/28 05:05:17;;;;;;;11.70;6.10;;;;;;;-128.00;-1.00;-1.00;102967;1253;1004364;-78
2024/01/28 05:07:44;;;;;;;21.00;6.00;;;;;;;-128.00;-1.00;-1.00;102966;1253;1004665;-79
2024/01/28 05:10:12;;;;;;;10.40;5.20;;;;;;;-128.00;-1.00;-1.00;103048;1253;1004055;-79
2024/01/28 05:12:39;;;;;;;16.80;6.50;;;;;;;-128.00;-1.00;-1.00;103004;1253;1003404;-79
2024/01/28 05:15:06;;;;;;;11.00;6.10;;;;;;;-128.00;-1.00;-1.00;103019;1253;1004370;-79
2024/01/28 05:17:35;;;;;;;12.20;6.10;;;;;;;-128.00;-1.00;-1.00;104928;1254;1005023;-79
2024/01/28 05:20:02;;;;;;;18.70;7.00;;;;;;;-128.00;-1.00;-1.00;103029;1253;1005304;-79
2024/01/28 05:22:29;;;;;;;14.20;5.60;;;;;;;-128.00;-1.00;-1.00;103035;1253;1005230;-79
2024/01/28 05:24:56;;;;;;;13.40;6.00;;;;;;;-128.00;-1.00;-1.00;102977;1253;1004769;-79
2024/01/28 05:27:23;;;;;;;15.20;5.80;;;;;;;-128.00;-1.00;-1.00;103014;1253;1003644;-79
2024/01/28 05:29:49;;;;;;;11.20;5.90;;;;;;;-128.00;-1.00;-1.00;102945;1256;1004846;-79
2024/01/28 05:32:16;;;;;;;17.40;7.20;;;;;;;-128.00;-1.00;-1.00;103005;1257;1004949;-79
2024/01/28 05:34:42;;;;;;;11.60;6.00;;;;;;;-128.00;-1.00;-1.00;103016;1253;1004610;-78
2024/01/28 05:37:09;;;;;;;15.10;5.90;;;;;;;-128.00;-1.00;-1.00;102999;1253;1004532;-79
2024/01/28 05:39:36;;;;;;;10.20;6.60;;;;;;;-128.00;-1.00;-1.00;102980;1253;1005459;-79
2024/01/28 05:42:03;;;;;;;11.30;6.20;;;;;;;-128.00;-1.00;-1.00;102925;1254;1005007;-79
2024/01/28 05:44:30;;;;;;;12.10;6.50;;;;;;;-128.00;-1.00;-1.00;102940;1254;1004100;-79
2024/01/28 05:46:56;;;;;;;25.60;6.90;;;;;;;-128.00;-1.00;-1.00;103215;1254;1004759;-79
2024/01/28 05:49:23;;;;;;;28.10;12.40;;;;;;;-128.00;-1.00;-1.00;105558;1254;1004352;-79
2024/01/28 05:51:50;;;;;;;40.20;14.60;;;;;;;-128.00;-1.00;-1.00;105587;1254;1004108;-79
2024/01/28 05:54:16;;;;;;;26.80;8.30;;;;;;;-128.00;-1.00;-1.00;105566;1254;1004855;-79
2024/01/28 05:56:43;;;;;;;20.10;7.80;;;;;;;-128.00;-1.00;-1.00;105554;1255;1004170;-79
2024/01/28 05:59:10;;;;;;;19.60;8.90;;;;;;;-128.00;-1.00;-1.00;105576;1253;1005414;-79
2024/01/28 06:01:36;;;;;;;21.40;8.90;;;;;;;-128.00;-1.00;-1.00;105570;1254;1004405;-79
2024/01/28 06:04:03;;;;;;;20.40;9.20;;;;;;;-128.00;-1.00;-1.00;105589;1254;1004521;-79
2024/01/28 06:06:30;;;;;;;19.40;7.50;;;;;;;-128.00;-1.00;-1.00;103607;1256;1004996;-79
2024/01/28 06:08:56;;;;;;;12.00;6.50;;;;;;;-128.00;-1.00;-1.00;102873;1256;1004038;-79
2024/01/28 06:11:24;;;;;;;16.90;7.50;;;;;;;-128.00;-1.00;-1.00;102938;1257;1003596;-79
2024/01/28 06:13:51;;;;;;;20.40;10.10;;;;;;;-128.00;-1.00;-1.00;103094;1253;1004745;-79
2024/01/28 06:16:17;;;;;;;17.50;8.50;;;;;;;-128.00;-1.00;-1.00;102950;1253;1005467;-79
2024/01/28 06:18:44;;;;;;;17.40;7.60;;;;;;;-128.00;-1.00;-1.00;103032;1253;1004911;-78
2024/01/28 06:21:11;;;;;;;15.30;7.80;;;;;;;-128.00;-1.00;-1.00;103048;1253;1004830;-79
2024/01/28 06:23:37;;;;;;;16.60;7.50;;;;;;;-128.00;-1.00;-1.00;103787;1253;1003801;-79
2024/01/28 06:26:04;;;;;;;19.70;8.20;;;;;;;-128.00;-1.00;-1.00;105669;1253;1004659;-79
2024/01/28 06:28:31;;;;;;;15.70;7.70;;;;;;;-128.00;-1.00;-1.00;105338;1253;1004353;-79
2024/01/28 06:30:58;;;;;;;16.10;7.30;;;;;;;-128.00;-1.00;-1.00;105663;1253;1004100;-79
2024/01/28 06:33:24;;;;;;;24.30;12.10;;;;;;;-128.00;-1.00;-1.00;104334;1253;1004020;-79
2024/01/28 06:35:51;;;;;;;16.00;10.70;;;;;;;-128.00;-1.00;-1.00;102958;1253;1003746;-79
2024/01/28 06:38:18;;;;;;;18.80;10.70;;;;;;;-128.00;-1.00;-1.00;102971;1257;1003596;-79
2024/01/28 06:40:45;;;;;;;18.90;10.60;;;;;;;-128.00;-1.00;-1.00;105292;1254;1004689;-79
2024/01/28 06:43:12;;;;;;;33.00;20.00;;;;;;;-128.00;-1.00;-1.00;105699;1253;1004581;-79
2024/01/28 06:45:39;;;;;;;31.50;18.60;;;;;;;-128.00;-1.00;-1.00;105510;1253;1003577;-79
2024/01/28 06:48:05;;;;;;;25.30;16.80;;;;;;;-128.00;-1.00;-1.00;105715;1253;1003838;-80
2024/01/28 06:50:32;;;;;;;21.90;11.80;;;;;;;-128.00;-1.00;-1.00;104902;1253;1004262;-79
2024/01/28 06:53:01;;;;;;;31.60;18.00;;;;;;;-128.00;-1.00;-1.00;102942;1253;1004138;-79
2024/01/28 06:55:27;;;;;;;;;;;;;;;-128.00;-1.00;-1.00;102969;1255;1059240;-79
2024/01/28 06:57:54;;;;;;;22.40;15.20;;;;;;;-128.00;-1.00;-1.00;102979;1253;1004029;-79
2024/01/28 07:00:21;;;;;;;33.10;20.70;;;;;;;-128.00;-1.00;-1.00;102981;1253;1004564;-79
2024/01/28 07:02:49;;;;;;;21.70;13.20;;;;;;;-128.00;-1.00;-1.00;102972;1253;1005012;-79
2024/01/28 07:05:16;;;;;;;39.60;27.80;;;;;;;-128.00;-1.00;-1.00;102991;1257;1059779;-79
2024/01/28 07:07:42;;;;;;;28.60;14.10;;;;;;;-128.00;-1.00;-1.00;103035;1253;1004850;-79
2024/01/28 07:10:09;;;;;;;24.60;14.90;;;;;;;-128.00;-1.00;-1.00;102974;1257;1005010;-78
2024/01/28 07:12:36;;;;;;;34.40;18.10;;;;;;;-128.00;-1.00;-1.00;102954;1259;1004787;-79
2024/01/28 07:15:03;;;;;;;24.00;16.60;;;;;;;-128.00;-1.00;-1.00;103055;1253;1005501;-80
2024/01/28 07:17:30;;;;;;;27.60;14.90;;;;;;;-128.00;-1.00;-1.00;103041;1253;1004886;-79
2024/01/28 07:19:57;;;;;;;24.80;12.90;;;;;;;-128.00;-1.00;-1.00;103672;1253;1004488;-79
2024/01/28 07:22:23;;;;;;;28.30;16.40;;;;;;;-128.00;-1.00;-1.00;103761;1253;1005291;-79
2024/01/28 07:24:50;;;;;;;29.50;18.30;;;;;;;-128.00;-1.00;-1.00;103016;1253;1004520;-79
2024/01/28 07:27:17;;;;;;;33.70;17.80;;;;;;;-128.00;-1.00;-1.00;102994;1255;1004627;-79
2024/01/28 07:29:44;;;;;;;35.30;19.30;;;;;;;-128.00;-1.00;-1.00;102958;1253;1004482;-79
2024/01/28 07:32:13;;;;;;;28.60;18.30;;;;;;;-128.00;-1.00;-1.00;103296;1253;1005061;-79
2024/01/28 07:34:40;;;;;;;35.50;19.00;;;;;;;-128.00;-1.00;-1.00;105644;1253;1044527;-78
2024/01/28 07:37:06;;;;;;;34.70;21.40;;;;;;;-128.00;-1.00;-1.00;105650;1253;1004118;-79
2024/01/28 07:39:33;;;;;;;26.60;14.40;;;;;;;-128.00;-1.00;-1.00;105631;1253;1004154;-79
2024/01/28 07:41:59;;;;;;;30.80;13.20;;;;;;;-128.00;-1.00;-1.00;103913;1254;1004364;-79
2024/01/28 07:44:26;;;;;;;34.50;16.70;;;;;;;-128.00;-1.00;-1.00;102944;1257;1006736;-79
2024/01/28 07:46:53;;;;;;;28.40;15.50;;;;;;;-128.00;-1.00;-1.00;102866;1254;1004197;-79
2024/01/28 07:49:20;;;;;;;38.50;22.10;;;;;;;-128.00;-1.00;-1.00;102921;1253;1004438;-78
2024/01/28 07:51:46;;;;;;;31.80;20.30;;;;;;;-128.00;-1.00;-1.00;102932;1254;1005168;-79
2024/01/28 07:54:14;;;;;;;27.20;16.40;;;;;;;-128.00;-1.00;-1.00;102954;1257;1004093;-79
2024/01/28 07:56:40;;;;;;;26.70;16.00;;;;;;;-128.00;-1.00;-1.00;102957;1255;1004457;-79
2024/01/28 07:59:07;;;;;;;42.50;26.70;;;;;;;-128.00;-1.00;-1.00;103001;1254;1004808;-79
2024/01/28 08:01:33;;;;;;;44.60;29.10;;;;;;;-128.00;-1.00;-1.00;103016;1253;1004317;-79
2024/01/28 08:04:00;;;;;;;25.40;17.10;;;;;;;-128.00;-1.00;-1.00;103017;1255;1005050;-81
2024/01/28 08:06:27;;;;;;;18.90;10.90;;;;;;;-128.00;-1.00;-1.00;103029;1257;1004582;-80
2024/01/28 08:08:54;;;;;;;18.40;11.10;;;;;;;-128.00;-1.00;-1.00;103024;1253;1004468;-79
2024/01/28 08:11:20;;;;;;;22.40;13.50;;;;;;;-128.00;-1.00;-1.00;102934;1257;1004535;-79
2024/01/28 08:13:48;;;;;;;22.00;12.70;;;;;;;-128.00;-1.00;-1.00;103033;1253;1004399;-79
2024/01/28 08:16:14;;;;;;;17.60;8.70;;;;;;;-128.00;-1.00;-1.00;102977;1253;1004710;-79
2024/01/28 08:18:41;;;;;;;21.40;9.10;;;;;;;-128.00;-1.00;-1.00;103034;1253;1004598;-79
2024/01/28 08:21:08;;;;;;;16.20;8.40;;;;;;;-128.00;-1.00;-1.00;102993;1253;1004350;-79
2024/01/28 08:23:34;;;;;;;21.20;8.90;;;;;;;-128.00;-1.00;-1.00;103676;1253;1004894;-78
2024/01/28 08:26:01;;;;;;;32.20;12.60;;;;;;;-128.00;-1.00;-1.00;105705;1254;1004873;-79
2024/01/28 08:28:27;;;;;;;22.30;10.70;;;;;;;-128.00;-1.00;-1.00;103832;1253;1004148;-79
2024/01/28 08:30:54;;;;;;;21.50;8.80;;;;;;;-128.00;-1.00;-1.00;105717;1253;1003263;-79
2024/01/28 08:33:20;;;;;;;45.20;31.90;;;;;;;-128.00;-1.00;-1.00;104585;1253;1004727;-79
2024/01/28 08:35:47;;;;;;;22.60;12.20;;;;;;;-128.00;-1.00;-1.00;105540;1253;1005071;-79
2024/01/28 08:38:14;;;;;;;16.60;9.30;;;;;;;-128.00;-1.00;-1.00;102951;1256;1004219;-79
2024/01/28 08:40:40;;;;;;;20.40;9.50;;;;;;;-128.00;-1.00;-1.00;103012;1254;1004802;-80
2024/01/28 08:43:07;;;;;;;18.80;9.90;;;;;;;-128.00;-1.00;-1.00;102990;1255;1007059;-79
2024/01/28 08:45:36;;;;;;;23.10;13.70;;;;;;;-128.00;-1.00;-1.00;102974;1254;1004547;-79
2024/01/28 08:48:03;;;;;;;24.20;13.60;;;;;;;-128.00;-1.00;-1.00;103136;1257;1004919;-79
2024/01/28 08:50:30;;;;;;;35.70;19.70;;;;;;;-128.00;-1.00;-1.00;102996;1256;1004898;-79
2024/01/28 08:52:56;;;;;;;81.00;31.80;;;;;;;-128.00;-1.00;-1.00;102991;1256;1004445;-79
2024/01/28 08:55:23;;;;;;;65.80;31.40;;;;;;;-128.00;-1.00;-1.00;102978;1253;1004880;-79
2024/01/28 08:57:49;;;;;;;28.20;17.30;;;;;;;-128.00;-1.00;-1.00;102951;1254;1006502;-79
2024/01/28 09:00:16;;;;;;;40.20;19.90;;;;;;;-128.00;-1.00;-1.00;102977;1257;1005009;-79
2024/01/28 09:02:43;;;;;;;36.20;20.30;;;;;;;-128.00;-1.00;-1.00;103796;1253;1004646;-79
2024/01/28 09:05:10;;;;;;;47.70;24.00;;;;;;;-128.00;-1.00;-1.00;104780;1253;1004535;-79
2024/01/28 09:07:36;;;;;;;52.40;25.80;;;;;;;-128.00;-1.00;-1.00;102966;1254;1004180;-79
2024/01/28 09:10:03;;;;;;;54.90;28.30;;;;;;;-128.00;-1.00;-1.00;102976;1257;1004544;-79
2024/01/28 09:12:29;;;;;;;78.90;31.30;;;;;;;-128.00;-1.00;-1.00;103034;1254;1004639;-79
2024/01/28 09:14:56;;;;;;;39.80;20.10;;;;;;;-128.00;-1.00;-1.00;103118;1254;1004517;-79
2024/01/28 09:17:23;;;;;;;29.50;17.10;;;;;;;-128.00;-1.00;-1.00;103013;1254;1004905;-79
2024/01/28 09:19:49;;;;;;;55.40;23.80;;;;;;;-128.00;-1.00;-1.00;103029;1255;1005965;-79
2024/01/28 09:22:16;;;;;;;32.70;17.50;;;;;;;-128.00;-1.00;-1.00;102983;1254;1004551;-79
2024/01/28 09:24:42;;;;;;;22.30;14.80;;;;;;;-128.00;-1.00;-1.00;102960;1257;1004190;-79
2024/01/28 09:27:10;;;;;;;33.00;18.80;;;;;;;-128.00;-1.00;-1.00;103009;1254;1003902;-79
2024/01/28 09:29:37;;;;;;;45.30;26.30;;;;;;;-128.00;-1.00;-1.00;103001;1254;1004941;-79
2024/01/28 09:32:04;;;;;;;35.40;27.30;;;;;;;-128.00;-1.00;-1.00;102935;1257;1003478;-79
2024/01/28 09:34:31;;;;;;;22.50;16.10;;;;;;;-128.00;-1.00;-1.00;102987;1256;1004730;-81
2024/01/28 09:36:57;;;;;;;26.00;17.60;;;;;;;-128.00;-1.00;-1.00;102966;1257;1004237;-79
2024/01/28 09:39:25;;;;;;;33.60;22.90;;;;;;;-128.00;-1.00;-1.00;103109;1255;1004434;-80
2024/01/28 09:41:58;;;;;;;54.50;42.40;;;;;;;-128.00;-1.00;-1.00;102948;1254;1005853;-79
2024/01/28 09:44:24;;;;;;;31.70;16.80;;;;;;;-128.00;-1.00;-1.00;102959;1254;1060034;-80
2024/01/28 09:46:51;;;;;;;21.70;12.70;;;;;;;-128.00;-1.00;-1.00;103049;1253;1004573;-79
2024/01/28 09:49:19;;;;;;;20.40;11.30;;;;;;;-128.00;-1.00;-1.00;103010;1256;1005434;-79
2024/01/28 09:51:46;;;;;;;24.70;15.10;;;;;;;-128.00;-1.00;-1.00;103031;1253;1004418;-79
2024/01/28 09:54:13;;;;;;;18.30;11.20;;;;;;;-128.00;-1.00;-1.00;103000;1255;1004440;-79
2024/01/28 09:56:41;;;;;;;27.40;14.30;;;;;;;-128.00;-1.00;-1.00;102974;1257;1003738;-79
2024/01/28 09:59:08;;;;;;;68.90;38.20;;;;;;;-128.00;-1.00;-1.00;103000;1257;1004335;-79
2024/01/28 10:01:35;;;;;;;58.00;34.50;;;;;;;-128.00;-1.00;-1.00;102939;1257;1004842;-79
2024/01/28 10:04:02;;;;;;;25.10;15.70;;;;;;;-128.00;-1.00;-1.00;102994;1254;1005305;-79
2024/01/28 10:06:28;;;;;;;56.40;39.70;;;;;;;-128.00;-1.00;-1.00;102971;1258;1004038;-79
2024/01/28 10:08:55;;;;;;;31.30;20.00;;;;;;;-128.00;-1.00;-1.00;103001;1257;1005203;-79
2024/01/28 10:11:21;;;;;;;242.20;119.30;;;;;;;-128.00;-1.00;-1.00;102939;1253;1004499;-80
2024/01/28 10:13:48;;;;;;;61.90;37.40;;;;;;;-128.00;-1.00;-1.00;103024;1255;1003884;-79
2024/01/28 10:16:14;;;;;;;43.20;23.40;;;;;;;-128.00;-1.00;-1.00;103086;1253;1004913;-80
2024/01/28 10:18:41;;;;;;;28.30;17.30;;;;;;;-128.00;-1.00;-1.00;103051;1254;1005144;-79
2024/01/28 10:21:08;;;;;;;31.90;16.90;;;;;;;-128.00;-1.00;-1.00;103053;1257;1004514;-79
2024/01/28 10:23:36;;;;;;;25.90;14.60;;;;;;;-128.00;-1.00;-1.00;102994;1255;1004845;-80
2024/01/28 10:26:05;;;;;;;73.50;38.60;;;;;;;-128.00;-1.00;-1.00;105618;1253;1004296;-79
2024/01/28 10:28:31;;;;;;;;;;;;;;;-128.00;-1.00;-1.00;105679;1253;1047320;-79
2024/01/28 10:30:58;;;;;;;71.00;36.20;;;;;;;-128.00;-1.00;-1.00;105700;1253;1004544;-79
2024/01/28 10:33:24;;;;;;;84.60;45.50;;;;;;;-128.00;-1.00;-1.00;105669;1254;1003325;-79
2024/01/28 10:35:51;;;;;;;76.60;44.60;;;;;;;-128.00;-1.00;-1.00;105651;1254;1004191;-79
2024/01/28 10:38:21;;;;;;;41.40;22.50;;;;;;;-128.00;-1.00;-1.00;105109;1253;1004439;-79
2024/01/28 10:40:47;;;;;;;63.30;33.20;;;;;;;-128.00;-1.00;-1.00;102864;1254;1049641;-80
2024/01/28 10:43:15;;;;;;;44.80;25.50;;;;;;;-128.00;-1.00;-1.00;102956;1255;1004445;-79
2024/01/28 10:45:43;;;;;;;29.30;16.20;;;;;;;-128.00;-1.00;-1.00;103968;1257;1003759;-79
2024/01/28 10:48:16;;;;;;;25.60;14.90;;;;;;;-128.00;-1.00;-1.00;103016;1255;1004861;-79
2024/01/28 10:50:43;;;;;;;30.50;14.90;;;;;;;-128.00;-1.00;-1.00;102982;1254;1045166;-79
2024/01/28 10:53:12;;;;;;;24.80;13.90;;;;;;;-128.00;-1.00;-1.00;103062;1257;1004402;-79
2024/01/28 10:55:39;;;;;;;91.90;29.90;;;;;;;-128.00;-1.00;-1.00;105589;1254;1061209;-79
2024/01/28 10:58:05;;;;;;;159.20;51.30;;;;;;;-128.00;-1.00;-1.00;105650;1253;1004476;-80
2024/01/28 11:00:32;;;;;;;57.80;27.80;;;;;;;-128.00;-1.00;-1.00;103395;1254;1003928;-80
2024/01/28 11:02:59;;;;;;;37.90;20.60;;;;;;;-128.00;-1.00;-1.00;102941;1254;1004205;-79